Time;durP1;ratioP1;P1;durP2;ratioP2;P2;SDS_P1;SDS_P2;PMS_P1;PMS_P2;Temp;Humidity;BMP_temperature;BMP_pressure;BME280_temperature;BME280_humidity;BME280_pressure;Samples;Min_cycle;Max_cycle;Signal;HPM_P1;HPM_P2
2022/01/23 00:01:09;;;;;;;0.00;0.00;;;;;;;;;;5062519;28;20075;-60
2022/01/23 00:03:35;;;;;;;0.00;0.00;;;;;;;;;;5060544;28;20040;-60
2022/01/23 00:06:00;;;;;;;0.00;0.00;;;;;;;;;;5065418;28;20219;-59
2022/01/23 00:08:25;;;;;;;0.17;0.17;;;;;;;;;;5066514;28;20063;-60
2022/01/23 00:10:52;;;;;;;0.00;0.00;;;;;;;;;;5065613;28;20030;-60
2022/01/23 00:13:29;;;;;;;1.15;0.98;;;;;;;;;;5064812;28;20039;-62
2022/01/23 00:18:38;;;;;;;0.77;0.43;;;;;;;;;;5062361;28;20039;-60
2022/01/23 00:21:04;;;;;;;0.00;0.00;;;;;;;;;;5066452;28;20017;-59
2022/01/23 00:30:18;;;;;;;0.00;0.00;;;;;;;;;;5068623;28;20028;-60
2022/01/23 00:31:45;;;;;;;0.47;0.47;;;;;;;;;;5065008;28;20027;-59
2022/01/23 00:34:10;;;;;;;0.00;0.00;;;;;;;;;;5067413;28;20043;-59
2022/01/23 00:36:35;;;;;;;0.00;0.00;;;;;;;;;;5065255;28;20104;-59
2022/01/23 00:39:01;;;;;;;0.00;0.00;;;;;;;;;;5069079;28;20111;-60
2022/01/23 00:41:26;;;;;;;0.00;0.00;;;;;;;;;;5069489;28;20043;-60
2022/01/23 00:43:53;;;;;;;0.00;0.00;;;;;;;;;;5068360;28;20025;-60
2022/01/23 00:51:22;;;;;;;1.30;1.30;;;;;;;;;;5063825;28;20536;-60
2022/01/23 00:53:47;;;;;;;0.00;0.00;;;;;;;;;;5063979;28;20092;-60
2022/01/23 00:56:13;;;;;;;0.00;0.00;;;;;;;;;;5069836;28;20044;-58
2022/01/23 00:58:38;;;;;;;0.00;0.00;;;;;;;;;;5067248;28;20037;-59
2022/01/23 01:01:03;;;;;;;0.00;0.00;;;;;;;;;;5065977;28;20537;-59
2022/01/23 01:03:29;;;;;;;0.00;0.00;;;;;;;;;;5066687;28;20507;-58
2022/01/23 01:05:54;;;;;;;0.00;0.00;;;;;;;;;;5066640;28;20024;-59
2022/01/23 01:08:19;;;;;;;0.00;0.00;;;;;;;;;;5070934;28;20381;-58
2022/01/23 01:13:40;;;;;;;0.00;0.00;;;;;;;;;;5070202;28;20459;-59
2022/01/23 01:32:50;;;;;;;0.00;0.00;;;;;;;;;;5069581;28;20044;-60
2022/01/23 01:35:36;;;;;;;0.00;0.00;;;;;;;;;;5070495;28;20020;-60
2022/01/23 01:38:01;;;;;;;0.00;0.00;;;;;;;;;;5069734;28;20024;-60
2022/01/23 01:40:27;;;;;;;0.00;0.00;;;;;;;;;;5070329;28;20021;-60
2022/01/23 01:42:52;;;;;;;0.00;0.00;;;;;;;;;;5069779;28;20032;-60
2022/01/23 01:45:21;;;;;;;0.00;0.00;;;;;;;;;;5068675;28;20028;-59
2022/01/23 01:47:47;;;;;;;0.00;0.00;;;;;;;;;;5069723;28;20404;-59
2022/01/23 01:50:12;;;;;;;0.00;0.00;;;;;;;;;;5070252;28;20027;-60
2022/01/23 01:52:37;;;;;;;0.00;0.00;;;;;;;;;;5069874;28;20024;-60
2022/01/23 01:55:06;;;;;;;0.00;0.00;;;;;;;;;;5067950;28;20024;-60
2022/01/23 01:57:39;;;;;;;0.73;0.73;;;;;;;;;;5070113;28;20071;-60
2022/01/23 02:00:15;;;;;;;0.00;0.00;;;;;;;;;;5069165;28;20493;-59
2022/01/23 02:08:30;;;;;;;0.00;0.00;;;;;;;;;;5069135;28;20462;-59
2022/01/23 02:11:01;;;;;;;0.28;0.28;;;;;;;;;;5069520;28;20074;-59
2022/01/23 02:51:03;;;;;;;0.00;0.00;;;;;;;;;;5067649;28;20050;-60
2022/01/23 02:55:58;;;;;;;3.15;1.88;;;;;;;;;;5067979;28;20024;-60
2022/01/23 02:58:31;;;;;;;0.00;0.00;;;;;;;;;;5068867;28;20073;-59
2022/01/23 03:01:16;;;;;;;0.00;0.00;;;;;;;;;;5068761;28;20783;-61
2022/01/23 03:03:45;;;;;;;0.00;0.00;;;;;;;;;;5068315;28;20021;-59
2022/01/23 03:09:22;;;;;;;0.00;0.00;;;;;;;;;;5067358;28;20376;-60
2022/01/23 03:34:54;;;;;;;0.00;0.00;;;;;;;;;;5068496;28;20028;-60
2022/01/23 03:37:19;;;;;;;0.00;0.00;;;;;;;;;;5068097;28;20031;-60
2022/01/23 03:39:45;;;;;;;0.00;0.00;;;;;;;;;;5067424;28;20108;-61
2022/01/23 03:42:10;;;;;;;0.00;0.00;;;;;;;;;;5067073;28;20056;-61
2022/01/23 03:44:40;;;;;;;0.00;0.00;;;;;;;;;;5068948;28;20098;-60
2022/01/23 03:49:37;;;;;;;0.52;0.52;;;;;;;;;;5068659;28;20044;-62
2022/01/23 03:52:03;;;;;;;0.00;0.00;;;;;;;;;;5068275;28;20440;-60
2022/01/23 03:54:29;;;;;;;0.20;0.20;;;;;;;;;;5071215;28;20384;-60
2022/01/23 03:56:56;;;;;;;0.00;0.00;;;;;;;;;;5071811;28;20035;-61
2022/01/23 03:59:21;;;;;;;0.00;0.00;;;;;;;;;;5072688;28;20385;-61
2022/01/23 04:01:46;;;;;;;0.00;0.00;;;;;;;;;;5072374;28;20020;-62
2022/01/23 04:04:31;;;;;;;0.00;0.00;;;;;;;;;;5071739;28;20021;-59
2022/01/23 04:06:57;;;;;;;0.00;0.00;;;;;;;;;;5070314;28;20027;-59
2022/01/23 04:09:22;;;;;;;0.00;0.00;;;;;;;;;;5071820;28;20028;-60
2022/01/23 04:11:48;;;;;;;0.10;0.10;;;;;;;;;;5069682;28;20640;-61
2022/01/23 04:14:15;;;;;;;0.15;0.15;;;;;;;;;;5070941;28;20051;-59
2022/01/23 04:19:38;;;;;;;0.00;0.00;;;;;;;;;;5072082;28;20031;-59
2022/01/23 04:45:09;;;;;;;0.00;0.00;;;;;;;;;;5070797;28;20016;-58
2022/01/23 05:00:17;;;;;;;0.43;0.43;;;;;;;;;;5070993;28;20040;-60
2022/01/23 05:05:25;;;;;;;0.00;0.00;;;;;;;;;;5068449;28;20064;-62
2022/01/23 05:07:52;;;;;;;0.00;0.00;;;;;;;;;;5070852;28;20097;-62
2022/01/23 05:10:17;;;;;;;0.00;0.00;;;;;;;;;;5070843;28;20020;-61
2022/01/23 05:12:43;;;;;;;0.00;0.00;;;;;;;;;;5071309;28;20043;-60
2022/01/23 05:15:11;;;;;;;0.00;0.00;;;;;;;;;;5069883;28;20491;-60
2022/01/23 05:17:36;;;;;;;0.00;0.00;;;;;;;;;;5071027;28;20040;-62
2022/01/23 05:20:02;;;;;;;0.00;0.00;;;;;;;;;;5070609;28;20483;-62
2022/01/23 05:22:38;;;;;;;0.00;0.00;;;;;;;;;;5070476;28;20017;-61
2022/01/23 05:25:17;;;;;;;0.00;0.00;;;;;;;;;;5070114;28;20025;-62
2022/01/23 05:27:43;;;;;;;0.00;0.00;;;;;;;;;;5067579;28;20024;-60
2022/01/23 05:30:09;;;;;;;0.00;0.00;;;;;;;;;;5070130;28;20048;-58
2022/01/23 05:32:43;;;;;;;0.00;0.00;;;;;;;;;;5070897;28;20103;-60
2022/01/23 05:35:10;;;;;;;0.00;0.00;;;;;;;;;;5068773;28;20024;-59
2022/01/23 05:37:37;;;;;;;0.00;0.00;;;;;;;;;;5070061;28;20008;-59
2022/01/23 05:40:03;;;;;;;1.42;1.35;;;;;;;;;;5069803;28;20039;-60
2022/01/23 05:42:28;;;;;;;1.25;1.25;;;;;;;;;;5069932;28;20021;-60
2022/01/23 05:44:53;;;;;;;1.92;1.88;;;;;;;;;;5070292;28;20028;-58
2022/01/23 05:47:18;;;;;;;0.00;0.00;;;;;;;;;;5069750;28;20030;-59
2022/01/23 05:49:43;;;;;;;0.57;0.57;;;;;;;;;;5069487;28;20051;-59
2022/01/23 05:52:09;;;;;;;0.00;0.00;;;;;;;;;;5069431;28;20024;-61
2022/01/23 05:54:35;;;;;;;0.00;0.00;;;;;;;;;;5070193;28;20410;-59
2022/01/23 05:57:00;;;;;;;0.00;0.00;;;;;;;;;;5070012;28;20082;-59
2022/01/23 05:59:25;;;;;;;0.00;0.00;;;;;;;;;;5070106;28;20116;-59
2022/01/23 06:01:55;;;;;;;0.00;0.00;;;;;;;;;;5069232;28;20163;-59
2022/01/23 06:04:21;;;;;;;0.00;0.00;;;;;;;;;;5068657;28;20023;-59
2022/01/23 06:06:46;;;;;;;0.00;0.00;;;;;;;;;;5069789;28;20099;-59
2022/01/23 06:09:15;;;;;;;0.00;0.00;;;;;;;;;;5069223;28;20094;-58
2022/01/23 06:11:40;;;;;;;0.00;0.00;;;;;;;;;;5068834;28;20040;-58
2022/01/23 06:14:08;;;;;;;0.00;0.00;;;;;;;;;;5069337;28;20074;-58
2022/01/23 06:16:33;;;;;;;0.00;0.00;;;;;;;;;;5068735;28;20032;-59
2022/01/23 06:18:59;;;;;;;0.10;0.10;;;;;;;;;;5069342;28;20027;-59
2022/01/23 06:21:25;;;;;;;1.20;1.13;;;;;;;;;;5069592;28;20029;-60
2022/01/23 06:24:00;;;;;;;0.00;0.00;;;;;;;;;;5069702;28;20028;-59
2022/01/23 06:26:29;;;;;;;0.00;0.00;;;;;;;;;;5069829;28;20413;-60
2022/01/23 06:28:58;;;;;;;0.00;0.00;;;;;;;;;;5069912;28;20020;-59
2022/01/23 06:31:24;;;;;;;0.00;0.00;;;;;;;;;;5068312;28;20021;-60
2022/01/23 06:33:49;;;;;;;0.00;0.00;;;;;;;;;;5069648;28;20020;-60
2022/01/23 06:36:14;;;;;;;0.00;0.00;;;;;;;;;;5069083;28;20515;-60
2022/01/23 06:38:39;;;;;;;0.00;0.00;;;;;;;;;;5066789;28;20393;-59
2022/01/23 06:41:05;;;;;;;0.00;0.00;;;;;;;;;;5069122;28;20043;-59
2022/01/23 06:43:30;;;;;;;3.88;3.65;;;;;;;;;;5068187;28;20025;-60
2022/01/23 06:45:55;;;;;;;0.00;0.00;;;;;;;;;;5069451;28;20024;-59
2022/01/23 06:48:20;;;;;;;0.00;0.00;;;;;;;;;;5068334;28;20027;-58
2022/01/23 06:50:45;;;;;;;0.20;0.20;;;;;;;;;;5064665;28;20020;-59
2022/01/23 06:53:11;;;;;;;0.00;0.00;;;;;;;;;;5068391;28;20031;-60
2022/01/23 06:55:36;;;;;;;0.00;0.00;;;;;;;;;;5070286;28;20396;-61
2022/01/23 06:58:01;;;;;;;0.00;0.00;;;;;;;;;;5068847;28;20070;-62
2022/01/23 07:00:27;;;;;;;0.00;0.00;;;;;;;;;;5068667;28;20028;-60
2022/01/23 07:02:52;;;;;;;0.00;0.00;;;;;;;;;;5070366;28;20033;-60
2022/01/23 07:05:17;;;;;;;0.00;0.00;;;;;;;;;;5069136;28;20031;-59
2022/01/23 07:07:42;;;;;;;0.00;0.00;;;;;;;;;;5068697;28;20439;-61
2022/01/23 07:10:08;;;;;;;0.00;0.00;;;;;;;;;;5068386;28;20326;-59
2022/01/23 07:12:33;;;;;;;0.00;0.00;;;;;;;;;;5068695;28;20068;-59
2022/01/23 07:15:00;;;;;;;0.00;0.00;;;;;;;;;;5070030;28;20150;-59
2022/01/23 07:17:25;;;;;;;0.00;0.00;;;;;;;;;;5069087;28;20021;-61
2022/01/23 07:19:51;;;;;;;0.00;0.00;;;;;;;;;;5069505;28;20449;-60
2022/01/23 07:25:05;;;;;;;0.00;0.00;;;;;;;;;;5053737;28;20036;-60
2022/01/23 07:27:46;;;;;;;0.00;0.00;;;;;;;;;;5069647;28;20358;-58
2022/01/23 07:33:00;;;;;;;9.52;8.68;;;;;;;;;;5072767;28;20032;-59
2022/01/23 07:35:25;;;;;;;0.00;0.00;;;;;;;;;;5069950;28;20399;-59
2022/01/23 07:37:51;;;;;;;0.20;0.20;;;;;;;;;;5072467;28;20029;-61
2022/01/23 07:40:16;;;;;;;0.00;0.00;;;;;;;;;;5072739;28;20091;-60
2022/01/23 07:42:41;;;;;;;0.20;0.20;;;;;;;;;;5070476;28;20020;-60
2022/01/23 07:45:07;;;;;;;0.55;0.55;;;;;;;;;;5068229;28;20040;-60
2022/01/23 07:47:32;;;;;;;0.55;0.43;;;;;;;;;;5071966;28;20017;-60
2022/01/23 07:49:57;;;;;;;0.10;0.10;;;;;;;;;;5072434;28;20027;-60
2022/01/23 07:52:23;;;;;;;0.38;0.38;;;;;;;;;;5069622;28;20036;-60
2022/01/23 07:54:48;;;;;;;0.70;0.70;;;;;;;;;;5070991;28;20039;-60
2022/01/23 07:57:14;;;;;;;0.25;0.25;;;;;;;;;;5068715;28;20028;-60
2022/01/23 07:59:39;;;;;;;0.00;0.00;;;;;;;;;;5069987;28;20013;-61
2022/01/23 08:02:04;;;;;;;0.00;0.00;;;;;;;;;;5068114;28;20036;-60
2022/01/23 08:04:31;;;;;;;0.90;0.88;;;;;;;;;;5069064;28;20029;-61
2022/01/23 08:07:22;;;;;;;0.00;0.00;;;;;;;;;;5067373;28;20033;-61
2022/01/23 08:09:50;;;;;;;0.00;0.00;;;;;;;;;;5067616;28;20123;-61
2022/01/23 08:12:18;;;;;;;0.00;0.00;;;;;;;;;;5069243;28;20477;-61
2022/01/23 08:14:43;;;;;;;0.00;0.00;;;;;;;;;;5069811;28;20021;-60
2022/01/23 08:17:08;;;;;;;0.00;0.00;;;;;;;;;;5067899;28;20103;-61
2022/01/23 08:19:42;;;;;;;0.10;0.10;;;;;;;;;;5066695;28;20043;-61
2022/01/23 08:22:09;;;;;;;0.00;0.00;;;;;;;;;;5049434;28;20036;-61
2022/01/23 08:24:37;;;;;;;0.00;0.00;;;;;;;;;;5068180;28;20473;-62
2022/01/23 08:27:03;;;;;;;1.52;1.52;;;;;;;;;;5063585;28;20024;-62
2022/01/23 08:29:31;;;;;;;0.00;0.00;;;;;;;;;;5069283;28;20045;-62
2022/01/23 08:31:59;;;;;;;0.20;0.20;;;;;;;;;;5063720;28;20529;-62
2022/01/23 08:34:24;;;;;;;0.00;0.00;;;;;;;;;;5064346;28;20032;-62
2022/01/23 08:36:50;;;;;;;1.02;1.02;;;;;;;;;;5066798;28;20025;-61
2022/01/23 08:39:17;;;;;;;0.65;0.65;;;;;;;;;;5065339;28;20028;-60
2022/01/23 08:41:51;;;;;;;0.00;0.00;;;;;;;;;;5068170;28;20495;-61
2022/01/23 08:44:16;;;;;;;0.10;0.10;;;;;;;;;;5065860;28;20037;-61
2022/01/23 08:46:41;;;;;;;0.00;0.00;;;;;;;;;;5067452;28;20036;-61
2022/01/23 08:49:07;;;;;;;0.08;0.08;;;;;;;;;;5070171;28;20678;-61
2022/01/23 08:51:32;;;;;;;0.38;0.38;;;;;;;;;;5070074;28;20103;-61
2022/01/23 08:53:59;;;;;;;3.70;3.60;;;;;;;;;;5069435;28;20119;-60
2022/01/23 08:56:24;;;;;;;0.00;0.00;;;;;;;;;;5068905;28;20481;-61
2022/01/23 08:58:49;;;;;;;3.92;1.38;;;;;;;;;;5068884;28;20067;-57
2022/01/23 09:01:15;;;;;;;0.00;0.00;;;;;;;;;;5070121;28;20032;-58
2022/01/23 09:03:40;;;;;;;0.00;0.00;;;;;;;;;;5069028;28;20078;-58
2022/01/23 09:06:07;;;;;;;0.00;0.00;;;;;;;;;;5070404;28;20025;-55
2022/01/23 09:08:35;;;;;;;6.00;4.93;;;;;;;;;;5070557;28;20397;-52
2022/01/23 09:11:07;;;;;;;0.00;0.00;;;;;;;;;;5069824;28;20047;-56
2022/01/23 09:16:09;;;;;;;0.00;0.00;;;;;;;;;;5067728;28;20043;-59
2022/01/23 09:18:35;;;;;;;0.00;0.00;;;;;;;;;;5070879;28;20056;-59
2022/01/23 09:21:00;;;;;;;0.00;0.00;;;;;;;;;;5070945;28;20035;-59
2022/01/23 09:23:25;;;;;;;0.20;0.10;;;;;;;;;;5068776;28;20017;-58
2022/01/23 09:25:51;;;;;;;0.00;0.00;;;;;;;;;;5070717;28;20465;-60
2022/01/23 09:28:18;;;;;;;0.00;0.00;;;;;;;;;;5070465;28;20085;-58
2022/01/23 09:30:48;;;;;;;0.00;0.00;;;;;;;;;;5068075;28;20024;-58
2022/01/23 09:33:13;;;;;;;0.00;0.00;;;;;;;;;;5070396;28;20042;-57
2022/01/23 09:35:38;;;;;;;0.00;0.00;;;;;;;;;;5070643;28;20048;-57
2022/01/23 09:38:04;;;;;;;0.00;0.00;;;;;;;;;;5069699;28;20028;-58
2022/01/23 09:40:29;;;;;;;4.00;1.70;;;;;;;;;;5070048;28;20024;-58
2022/01/23 09:43:08;;;;;;;0.52;0.52;;;;;;;;;;5068866;28;20043;-59
2022/01/23 09:45:33;;;;;;;0.30;0.30;;;;;;;;;;5070498;28;20044;-59
2022/01/23 09:48:00;;;;;;;3.85;1.70;;;;;;;;;;5070022;28;20085;-60
2022/01/23 09:50:25;;;;;;;3.72;3.42;;;;;;;;;;5069493;28;20117;-58
2022/01/23 09:52:53;;;;;;;0.00;0.00;;;;;;;;;;5069189;28;20465;-59
2022/01/23 09:55:19;;;;;;;0.00;0.00;;;;;;;;;;5066020;28;20028;-60
2022/01/23 09:57:47;;;;;;;0.00;0.00;;;;;;;;;;5067183;28;20090;-60
2022/01/23 10:00:14;;;;;;;0.00;0.00;;;;;;;;;;5068963;28;20464;-59
2022/01/23 10:02:40;;;;;;;1.48;1.45;;;;;;;;;;5068370;28;20020;-58
2022/01/23 10:05:05;;;;;;;0.00;0.00;;;;;;;;;;5067927;28;20377;-60
2022/01/23 10:07:32;;;;;;;0.00;0.00;;;;;;;;;;5068916;28;20079;-60
2022/01/23 10:10:09;;;;;;;0.00;0.00;;;;;;;;;;5069565;28;20020;-60
2022/01/23 10:12:37;;;;;;;0.85;0.85;;;;;;;;;;5069874;28;20078;-60
2022/01/23 10:15:03;;;;;;;0.00;0.00;;;;;;;;;;5069640;28;20059;-60
2022/01/23 10:17:28;;;;;;;0.00;0.00;;;;;;;;;;5069273;28;20488;-59
2022/01/23 10:19:53;;;;;;;0.00;0.00;;;;;;;;;;5068868;28;21459;-60
2022/01/23 10:22:18;;;;;;;0.00;0.00;;;;;;;;;;5067421;28;20060;-59
2022/01/23 10:24:47;;;;;;;0.00;0.00;;;;;;;;;;5069316;28;20020;-58
2022/01/23 10:27:12;;;;;;;0.35;0.35;;;;;;;;;;5069081;28;20022;-58
2022/01/23 10:29:43;;;;;;;0.00;0.00;;;;;;;;;;5069339;28;20111;-58
2022/01/23 10:32:10;;;;;;;0.75;0.75;;;;;;;;;;5069353;28;20040;-59
2022/01/23 10:34:57;;;;;;;0.00;0.00;;;;;;;;;;5067418;28;20082;-60
2022/01/23 10:37:36;;;;;;;0.00;0.00;;;;;;;;;;5064833;28;20086;-60
2022/01/23 10:40:09;;;;;;;0.00;0.00;;;;;;;;;;5065736;28;20039;-59
2022/01/23 10:42:53;;;;;;;0.00;0.00;;;;;;;;;;5065118;28;20048;-59
2022/01/23 10:50:50;;;;;;;0.00;0.00;;;;;;;;;;5066250;28;20157;-58
2022/01/23 10:53:15;;;;;;;0.00;0.00;;;;;;;;;;5062159;28;20104;-59
2022/01/23 10:55:43;;;;;;;2.10;2.10;;;;;;;;;;5065327;28;20285;-60
2022/01/23 10:58:18;;;;;;;6.18;3.55;;;;;;;;;;5058258;28;20026;-58
2022/01/23 11:00:43;;;;;;;0.63;0.63;;;;;;;;;;5066394;28;20721;-59
2022/01/23 11:03:15;;;;;;;5.55;5.22;;;;;;;;;;5063582;28;20034;-59
2022/01/23 11:05:41;;;;;;;0.00;0.00;;;;;;;;;;5065217;28;20017;-58
2022/01/23 11:08:20;;;;;;;0.32;0.32;;;;;;;;;;5067160;28;20090;-58
2022/01/23 11:10:52;;;;;;;0.00;0.00;;;;;;;;;;5066452;28;20028;-58
2022/01/23 11:19:15;;;;;;;0.00;0.00;;;;;;;;;;5063347;28;20028;-59
2022/01/23 11:21:41;;;;;;;0.00;0.00;;;;;;;;;;5067093;28;20016;-59
2022/01/23 11:24:07;;;;;;;0.00;0.00;;;;;;;;;;5065831;28;20035;-59
2022/01/23 11:26:32;;;;;;;0.95;0.95;;;;;;;;;;5064762;28;20017;-59
2022/01/23 11:29:06;;;;;;;2.85;2.70;;;;;;;;;;5063939;28;20020;-59
2022/01/23 11:31:32;;;;;;;0.00;0.00;;;;;;;;;;5060117;28;20033;-59
2022/01/23 11:33:58;;;;;;;0.00;0.00;;;;;;;;;;5063646;28;20028;-59
2022/01/23 11:36:24;;;;;;;0.00;0.00;;;;;;;;;;5064301;28;20100;-59
2022/01/23 11:38:51;;;;;;;0.32;0.32;;;;;;;;;;5063568;28;20157;-59
2022/01/23 11:54:46;;;;;;;0.57;0.57;;;;;;;;;;5064623;28;20024;-57
2022/01/23 11:57:30;;;;;;;1.08;1.08;;;;;;;;;;5064927;28;20480;-58
2022/01/23 11:59:58;;;;;;;1.77;1.63;;;;;;;;;;5065815;28;20025;-58
2022/01/23 12:02:41;;;;;;;0.00;0.00;;;;;;;;;;5063349;28;20243;-59
2022/01/23 12:05:12;;;;;;;0.00;0.00;;;;;;;;;;5065578;28;20141;-60
2022/01/23 12:07:39;;;;;;;0.00;0.00;;;;;;;;;;5063273;28;20507;-59
2022/01/23 12:10:09;;;;;;;0.03;0.03;;;;;;;;;;5065410;28;20028;-58
2022/01/23 12:12:41;;;;;;;0.00;0.00;;;;;;;;;;5065544;28;20520;-60
2022/01/23 12:18:16;;;;;;;0.00;0.00;;;;;;;;;;5067466;28;20028;-59
2022/01/23 12:20:46;;;;;;;0.00;0.00;;;;;;;;;;5069882;28;20074;-62
2022/01/23 12:23:11;;;;;;;;;;;;;;;;;;5071428;28;20031;-61
2022/01/23 12:25:41;;;;;;;0.00;0.00;;;;;;;;;;5069316;28;19913;-61
2022/01/23 12:28:08;;;;;;;0.00;0.00;;;;;;;;;;5070239;28;20263;-59
2022/01/23 12:30:33;;;;;;;0.20;0.20;;;;;;;;;;5067917;28;20448;-59
2022/01/23 12:33:17;;;;;;;0.00;0.00;;;;;;;;;;5071603;28;20085;-60
2022/01/23 12:35:49;;;;;;;0.45;0.45;;;;;;;;;;5069671;28;20066;-59
2022/01/23 12:38:15;;;;;;;0.80;0.80;;;;;;;;;;5068556;28;20012;-60
2022/01/23 12:40:43;;;;;;;2.08;1.45;;;;;;;;;;5066948;28;20027;-60
2022/01/23 12:43:21;;;;;;;0.32;0.32;;;;;;;;;;5069545;28;20031;-59
2022/01/23 12:45:57;;;;;;;1.25;1.23;;;;;;;;;;5066430;28;20496;-59
2022/01/23 12:48:25;;;;;;;0.70;0.70;;;;;;;;;;5066524;28;20013;-61
2022/01/23 12:50:50;;;;;;;1.75;0.70;;;;;;;;;;5070533;28;20024;-64
2022/01/23 12:53:16;;;;;;;4.45;4.05;;;;;;;;;;5069292;28;20066;-62
2022/01/23 12:56:00;;;;;;;0.65;0.57;;;;;;;;;;5063912;28;20025;-63
2022/01/23 12:58:27;;;;;;;1.48;1.38;;;;;;;;;;5064641;28;20039;-63
2022/01/23 13:00:52;;;;;;;0.20;0.20;;;;;;;;;;5070344;28;20099;-61
2022/01/23 13:03:22;;;;;;;3.03;2.55;;;;;;;;;;5070066;28;20012;-62
2022/01/23 13:05:48;;;;;;;1.65;1.55;;;;;;;;;;5069888;28;20074;-62
2022/01/23 13:08:24;;;;;;;0.00;0.00;;;;;;;;;;5070404;28;20036;-60
2022/01/23 13:11:21;;;;;;;0.57;0.57;;;;;;;;;;5069395;28;20025;-62
2022/01/23 13:13:53;;;;;;;0.00;0.00;;;;;;;;;;5069233;28;20417;-61
2022/01/23 13:16:36;;;;;;;1.27;1.17;;;;;;;;;;5063635;28;20028;-61
2022/01/23 13:19:31;;;;;;;1.17;1.10;;;;;;;;;;5071246;28;20016;-63
2022/01/23 13:30:17;;;;;;;1.55;0.65;;;;;;;;;;5068346;28;20019;-62
2022/01/23 13:32:46;;;;;;;0.00;0.00;;;;;;;;;;5069538;28;20100;-61
2022/01/23 13:35:14;;;;;;;1.17;1.17;;;;;;;;;;5070439;28;20637;-62
2022/01/23 13:37:41;;;;;;;0.00;0.00;;;;;;;;;;5069878;28;20342;-62
2022/01/23 13:40:13;;;;;;;1.40;1.40;;;;;;;;;;5070173;28;20056;-61
2022/01/23 13:59:20;;;;;;;2.72;0.75;;;;;;;;;;5066105;28;20258;-61
2022/01/23 14:01:50;;;;;;;0.05;0.05;;;;;;;;;;5069752;28;20020;-61
2022/01/23 14:04:16;;;;;;;0.00;0.00;;;;;;;;;;5069318;28;20032;-61
2022/01/23 14:06:42;;;;;;;1.42;0.43;;;;;;;;;;5069192;28;20025;-61
2022/01/23 14:09:09;;;;;;;1.63;1.48;;;;;;;;;;5068662;28;20036;-59
2022/01/23 14:11:34;;;;;;;1.90;1.80;;;;;;;;;;5067418;28;20684;-61
2022/01/23 14:14:18;;;;;;;0.60;0.60;;;;;;;;;;5068999;28;20020;-60
2022/01/23 14:16:44;;;;;;;0.75;0.75;;;;;;;;;;5069143;28;20149;-61
2022/01/23 14:19:17;;;;;;;0.22;0.17;;;;;;;;;;5068582;28;20414;-62
2022/01/23 14:21:44;;;;;;;0.52;0.52;;;;;;;;;;5068720;28;20021;-61
2022/01/23 14:24:09;;;;;;;0.45;0.28;;;;;;;;;;5069209;28;20358;-59
2022/01/23 14:26:34;;;;;;;0.25;0.25;;;;;;;;;;5066299;28;20024;-60
2022/01/23 14:29:04;;;;;;;0.00;0.00;;;;;;;;;;5065819;28;20016;-62
2022/01/23 14:31:36;;;;;;;;;;;;;;;;;;5066518;28;20020;-62
2022/01/23 14:34:03;;;;;;;0.00;0.00;;;;;;;;;;5068151;28;19912;-61
2022/01/23 14:36:30;;;;;;;0.00;0.00;;;;;;;;;;5067323;28;20036;-60
2022/01/23 14:39:00;;;;;;;0.00;0.00;;;;;;;;;;5068378;28;20099;-59
2022/01/23 14:41:27;;;;;;;0.95;0.95;;;;;;;;;;5064443;28;20036;-62
2022/01/23 14:43:53;;;;;;;0.00;0.00;;;;;;;;;;5068972;28;20052;-61
2022/01/23 14:46:18;;;;;;;0.00;0.00;;;;;;;;;;5069108;28;20078;-62
2022/01/23 14:48:46;;;;;;;0.00;0.00;;;;;;;;;;5067406;28;20472;-60
2022/01/23 14:51:16;;;;;;;0.00;0.00;;;;;;;;;;5067995;28;20107;-63
2022/01/23 14:53:42;;;;;;;0.20;0.20;;;;;;;;;;5065785;28;20469;-61
2022/01/23 14:56:09;;;;;;;0.00;0.00;;;;;;;;;;5069053;28;20027;-62
2022/01/23 14:58:35;;;;;;;6.38;6.18;;;;;;;;;;5068328;28;20104;-61
2022/01/23 15:01:01;;;;;;;0.00;0.00;;;;;;;;;;5067830;28;20107;-62
2022/01/23 15:03:27;;;;;;;0.03;0.03;;;;;;;;;;5067156;28;20189;-61
2022/01/23 15:05:53;;;;;;;0.00;0.00;;;;;;;;;;5067978;28;20013;-61
2022/01/23 15:08:22;;;;;;;0.00;0.00;;;;;;;;;;5062516;28;20046;-60
2022/01/23 15:10:48;;;;;;;0.00;0.00;;;;;;;;;;5060637;28;20435;-61
2022/01/23 15:13:14;;;;;;;0.00;0.00;;;;;;;;;;5064598;28;20027;-60
2022/01/23 15:15:40;;;;;;;0.00;0.00;;;;;;;;;;5062639;28;20017;-61
2022/01/23 15:18:05;;;;;;;0.00;0.00;;;;;;;;;;5065297;28;20025;-61
2022/01/23 15:20:33;;;;;;;0.13;0.13;;;;;;;;;;5064408;28;20024;-61
2022/01/23 15:22:58;;;;;;;0.00;0.00;;;;;;;;;;5066726;28;20017;-59
2022/01/23 15:25:24;;;;;;;0.00;0.00;;;;;;;;;;5066934;28;20381;-59
2022/01/23 15:27:50;;;;;;;0.00;0.00;;;;;;;;;;5068007;28;20587;-60
2022/01/23 15:30:16;;;;;;;0.00;0.00;;;;;;;;;;5068591;28;20040;-60
2022/01/23 15:32:45;;;;;;;0.00;0.00;;;;;;;;;;5066282;28;20017;-59
2022/01/23 15:35:11;;;;;;;0.00;0.00;;;;;;;;;;5065911;28;20019;-60
2022/01/23 15:37:40;;;;;;;0.60;0.60;;;;;;;;;;5064836;28;20028;-61
2022/01/23 15:40:07;;;;;;;0.00;0.00;;;;;;;;;;5065662;28;20092;-61
2022/01/23 15:42:32;;;;;;;0.57;0.57;;;;;;;;;;5064877;28;20082;-60
2022/01/23 15:44:58;;;;;;;0.00;0.00;;;;;;;;;;5062821;28;20481;-59
2022/01/23 15:47:23;;;;;;;0.00;0.00;;;;;;;;;;5067086;28;20048;-60
2022/01/23 15:49:48;;;;;;;0.28;0.28;;;;;;;;;;5070718;28;20119;-60
2022/01/23 15:52:13;;;;;;;0.52;0.52;;;;;;;;;;5071995;28;20024;-60
2022/01/23 15:54:39;;;;;;;0.10;0.10;;;;;;;;;;5070428;28;20446;-59
2022/01/23 15:57:05;;;;;;;1.00;0.75;;;;;;;;;;5070682;28;20037;-60
2022/01/23 15:59:30;;;;;;;0.00;0.00;;;;;;;;;;5071783;28;20024;-61
2022/01/23 16:01:56;;;;;;;0.00;0.00;;;;;;;;;;5069602;28;20060;-61
2022/01/23 16:04:22;;;;;;;0.43;0.25;;;;;;;;;;5071482;28;20032;-61
2022/01/23 16:06:47;;;;;;;0.10;0.00;;;;;;;;;;5070397;28;20031;-62
2022/01/23 16:09:13;;;;;;;0.00;0.00;;;;;;;;;;5070614;28;20053;-63
2022/01/23 16:11:39;;;;;;;0.22;0.22;;;;;;;;;;5070759;28;20043;-62
2022/01/23 16:14:04;;;;;;;0.00;0.00;;;;;;;;;;5070374;28;20024;-62
2022/01/23 16:16:30;;;;;;;0.00;0.00;;;;;;;;;;5071557;28;20424;-63
2022/01/23 16:18:56;;;;;;;0.00;0.00;;;;;;;;;;5071280;28;20021;-62
2022/01/23 16:21:23;;;;;;;0.13;0.13;;;;;;;;;;5070795;28;20032;-62
2022/01/23 16:23:48;;;;;;;0.00;0.00;;;;;;;;;;5070275;28;20021;-63
2022/01/23 16:26:13;;;;;;;0.00;0.00;;;;;;;;;;5068846;28;20051;-62
2022/01/23 16:28:39;;;;;;;0.00;0.00;;;;;;;;;;5070291;28;20048;-63
2022/01/23 16:31:07;;;;;;;0.00;0.00;;;;;;;;;;5066425;28;20012;-62
2022/01/23 16:33:32;;;;;;;0.00;0.00;;;;;;;;;;5069151;28;20045;-62
2022/01/23 16:35:57;;;;;;;0.00;0.00;;;;;;;;;;5068025;28;20028;-62
2022/01/23 16:38:23;;;;;;;0.00;0.00;;;;;;;;;;5067675;28;20111;-61
2022/01/23 16:40:50;;;;;;;0.00;0.00;;;;;;;;;;5068911;28;20020;-62
2022/01/23 16:43:17;;;;;;;0.00;0.00;;;;;;;;;;5069474;28;20027;-63
2022/01/23 16:45:42;;;;;;;0.00;0.00;;;;;;;;;;5066980;28;20111;-62
2022/01/23 16:48:07;;;;;;;0.43;0.22;;;;;;;;;;5069495;28;20504;-63
2022/01/23 16:50:33;;;;;;;0.00;0.00;;;;;;;;;;5069641;28;20025;-62
2022/01/23 16:52:58;;;;;;;0.20;0.20;;;;;;;;;;5067880;28;20108;-63
2022/01/23 16:55:24;;;;;;;0.00;0.00;;;;;;;;;;5068763;28;20016;-63
2022/01/23 16:57:49;;;;;;;0.00;0.00;;;;;;;;;;5069573;28;20072;-63
2022/01/23 17:00:15;;;;;;;0.85;0.47;;;;;;;;;;5063995;28;20343;-62
2022/01/23 17:02:43;;;;;;;0.00;0.00;;;;;;;;;;5065761;28;20085;-63
2022/01/23 17:05:08;;;;;;;0.00;0.00;;;;;;;;;;5067420;28;20028;-63
2022/01/23 17:07:33;;;;;;;0.00;0.00;;;;;;;;;;5065747;28;20553;-64
2022/01/23 17:09:58;;;;;;;0.10;0.00;;;;;;;;;;5066666;28;20028;-64
2022/01/23 17:12:24;;;;;;;0.00;0.00;;;;;;;;;;5064304;28;20028;-63
2022/01/23 17:14:49;;;;;;;0.00;0.00;;;;;;;;;;5066630;28;20400;-63
2022/01/23 17:17:15;;;;;;;0.00;0.00;;;;;;;;;;5066026;28;20458;-63
2022/01/23 17:19:40;;;;;;;0.00;0.00;;;;;;;;;;5068781;28;20028;-62
2022/01/23 17:22:05;;;;;;;0.00;0.00;;;;;;;;;;5070626;28;20036;-64
2022/01/23 17:24:36;;;;;;;0.28;0.28;;;;;;;;;;5068925;28;20072;-63
2022/01/23 17:27:01;;;;;;;0.10;0.10;;;;;;;;;;5069372;28;20191;-63
2022/01/23 17:29:26;;;;;;;0.00;0.00;;;;;;;;;;5068010;28;20135;-62
2022/01/23 17:31:52;;;;;;;0.00;0.00;;;;;;;;;;5068801;28;20066;-64
2022/01/23 17:34:19;;;;;;;0.10;0.10;;;;;;;;;;5068369;28;20040;-64
2022/01/23 17:36:45;;;;;;;0.00;0.00;;;;;;;;;;5067948;28;20095;-63
2022/01/23 17:39:10;;;;;;;0.00;0.00;;;;;;;;;;5068676;28;20103;-63
2022/01/23 17:41:35;;;;;;;0.03;0.03;;;;;;;;;;5068966;28;21035;-63
2022/01/23 17:44:00;;;;;;;0.00;0.00;;;;;;;;;;5069086;28;20714;-63
2022/01/23 17:46:31;;;;;;;0.20;0.20;;;;;;;;;;5069384;28;20103;-63
2022/01/23 17:51:25;;;;;;;0.52;0.52;;;;;;;;;;5069668;28;20017;-63
2022/01/23 17:53:52;;;;;;;0.10;0.10;;;;;;;;;;5066678;28;20086;-63
2022/01/23 17:56:18;;;;;;;0.40;0.40;;;;;;;;;;5064851;28;20048;-62
2022/01/23 17:58:43;;;;;;;0.00;0.00;;;;;;;;;;5064257;28;20114;-62
2022/01/23 18:01:09;;;;;;;0.00;0.00;;;;;;;;;;5068077;28;20056;-63
2022/01/23 18:03:36;;;;;;;4.03;3.83;;;;;;;;;;5068377;28;20055;-62
2022/01/23 18:06:02;;;;;;;38.95;15.23;;;;;;;;;;5067255;28;20070;-63
2022/01/23 18:08:28;;;;;;;0.00;0.00;;;;;;;;;;5067673;28;20044;-62
2022/01/23 18:10:53;;;;;;;2.75;2.72;;;;;;;;;;5066190;28;20115;-63
2022/01/23 18:13:22;;;;;;;1.17;1.17;;;;;;;;;;5067081;28;20115;-63
2022/01/23 18:15:49;;;;;;;8.50;8.25;;;;;;;;;;5060041;28;20017;-63
2022/01/23 18:18:15;;;;;;;0.03;0.03;;;;;;;;;;5060940;28;20032;-62